Fairmont, Ohio
Current Conditions -  °F | °C
As of 5:17 PM on Wednesday 28 Jan 2015 (Local Time) from KI69 Reporting Station
Clear Clear  
Wind Chill: 29°   Ceiling: Unl
Heat Index: 34°   Visibility: 10mi
Dew Point: 21°   Wind: 6mph
Humidity: 60%   Direction: 130°SE
Pressure: 30.26"   Gusts: NA
Location:  39.1585°N, 84.5998°W
Report Text: KI69 282217Z AUTO 13005KT 10SM CLR 01/M06 A3026 RMK AO1
Loading
Personal Weather Stations






























Interactive Weather Map New forecast layout! Learn more

10-Day Weather Forecast

Advertisements
Track Severe Weather on mobile